createdAt,value
2019-05-21T00:02:13.053Z,4.93
2019-05-21T00:04:43.841Z,4.90
2019-05-21T00:07:14.463Z,5.93
2019-05-21T00:09:45.038Z,5.30
2019-05-21T00:12:15.535Z,5.00
2019-05-21T00:14:46.117Z,5.40
2019-05-21T00:17:16.600Z,5.30
2019-05-21T00:19:47.211Z,5.13
2019-05-21T00:22:17.856Z,4.77
2019-05-21T00:24:48.501Z,4.53
2019-05-21T00:27:19.161Z,5.47
2019-05-21T00:30:25.571Z,5.40
2019-05-21T00:33:31.996Z,5.60
2019-05-21T00:36:38.981Z,4.70
2019-05-21T00:39:45.343Z,4.63
2019-05-21T00:42:19.607Z,5.70
2019-05-21T00:44:50.105Z,5.90
2019-05-21T00:47:20.706Z,6.17
2019-05-21T00:49:51.287Z,6.73
2019-05-21T00:52:22.206Z,6.73
2019-05-21T00:54:52.887Z,7.17
2019-05-21T00:57:23.489Z,8.23
2019-05-21T00:59:54.038Z,8.13
2019-05-21T01:02:24.561Z,8.10
2019-05-21T01:05:00.581Z,8.40
2019-05-21T01:07:27.586Z,8.50
2019-05-21T01:09:58.078Z,8.10
2019-05-21T01:12:28.615Z,8.00
2019-05-21T01:14:59.527Z,8.33
2019-05-21T01:17:30.168Z,8.57
2019-05-21T01:20:01.128Z,9.33
2019-05-21T01:22:31.661Z,8.53
2019-05-21T01:25:02.245Z,9.33
2019-05-21T01:27:32.728Z,9.00
2019-05-21T01:30:03.304Z,7.93
2019-05-21T01:32:35.482Z,8.37
2019-05-21T01:35:16.781Z,6.73
2019-05-21T01:37:38.407Z,6.20
2019-05-21T01:40:08.914Z,4.87
2019-05-21T01:42:39.481Z,3.43
2019-05-21T01:45:10.396Z,3.57
2019-05-21T01:47:40.962Z,2.93
2019-05-21T01:50:11.705Z,2.93
2019-05-21T01:52:42.239Z,2.43
2019-05-21T01:55:12.885Z,3.00
2019-05-21T01:57:43.906Z,2.90
2019-05-21T02:00:14.449Z,3.30
2019-05-21T02:02:45.090Z,3.00
2019-05-21T02:05:15.798Z,4.07
2019-05-21T02:07:46.295Z,4.23
2019-05-21T02:10:16.806Z,3.80
2019-05-21T02:12:47.414Z,4.20
2019-05-21T02:15:18.097Z,3.73
2019-05-21T02:17:48.715Z,3.53
2019-05-21T02:20:19.293Z,3.20
2019-05-21T02:22:49.779Z,4.53
2019-05-21T02:25:20.450Z,4.87
2019-05-21T02:27:51.027Z,4.30
2019-05-21T02:30:22.448Z,4.67
2019-05-21T02:32:53.095Z,4.10
2019-05-21T02:35:23.708Z,4.73
2019-05-21T02:37:54.214Z,4.07
2019-05-21T02:40:24.862Z,4.70
2019-05-21T02:42:55.603Z,5.57
2019-05-21T02:45:26.117Z,5.13
2019-05-21T02:47:56.700Z,5.60
2019-05-21T02:50:27.798Z,5.10
2019-05-21T02:52:58.692Z,4.47
2019-05-21T02:55:29.289Z,4.10
2019-05-21T02:57:59.815Z,4.30
2019-05-21T03:00:55.629Z,4.27
2019-05-21T03:03:28.799Z,3.93
2019-05-21T03:06:13.340Z,3.63
2019-05-21T03:08:31.629Z,3.60
2019-05-21T03:11:02.127Z,3.10
2019-05-21T03:13:32.833Z,3.60
2019-05-21T03:16:03.367Z,2.70
2019-05-21T03:18:33.895Z,3.37
2019-05-21T03:21:04.518Z,2.80
2019-05-21T03:23:35.127Z,2.20
2019-05-21T03:26:06.045Z,2.40
2019-05-21T03:28:36.744Z,2.30
2019-05-21T03:31:07.223Z,3.13
2019-05-21T03:33:37.769Z,2.83
2019-05-21T03:36:08.405Z,2.57
2019-05-21T03:38:38.950Z,2.30
2019-05-21T03:41:09.928Z,1.97
2019-05-21T03:43:40.544Z,2.57
2019-05-21T03:46:11.134Z,2.20
2019-05-21T03:48:41.781Z,1.90
2019-05-21T03:51:12.355Z,1.83
2019-05-21T03:53:42.859Z,1.50
2019-05-21T03:56:13.493Z,1.70
2019-05-21T03:58:44.030Z,1.43
2019-05-21T04:01:14.609Z,1.93
2019-05-21T04:03:45.275Z,1.60
2019-05-21T04:06:15.907Z,1.67
2019-05-21T04:08:46.609Z,2.30
2019-05-21T04:11:17.123Z,2.07
2019-05-21T04:13:47.850Z,1.67
2019-05-21T04:16:34.007Z,1.70
2019-05-21T04:19:26.381Z,1.87
2019-05-21T04:21:57.106Z,1.23
2019-05-21T04:24:27.801Z,1.30
2019-05-21T04:26:58.634Z,1.67
2019-05-21T04:29:29.147Z,1.20
2019-05-21T04:31:59.679Z,1.57
2019-05-21T04:34:32.066Z,1.60
2019-05-21T04:37:10.745Z,1.37
2019-05-21T04:39:35.603Z,1.10
2019-05-21T04:42:06.107Z,1.37
2019-05-21T04:44:36.627Z,1.40
2019-05-21T04:47:07.191Z,1.60
2019-05-21T04:49:37.751Z,1.47
2019-05-21T04:52:08.346Z,1.70
2019-05-21T04:54:38.865Z,1.47
2019-05-21T04:57:09.491Z,1.60
2019-05-21T04:59:40.030Z,1.67
2019-05-21T05:02:10.605Z,1.70
2019-05-21T05:04:43.503Z,1.73
2019-05-21T05:07:27.558Z,1.73
2019-05-21T05:09:46.173Z,2.40
2019-05-21T05:12:16.707Z,1.70
2019-05-21T05:14:47.210Z,1.80
2019-05-21T05:17:17.783Z,1.83
2019-05-21T05:19:48.289Z,1.33
2019-05-21T05:22:20.491Z,1.70
2019-05-21T05:24:51.081Z,2.10
2019-05-21T05:27:21.671Z,1.80
2019-05-21T05:29:52.167Z,1.83
2019-05-21T05:32:22.744Z,1.80
2019-05-21T05:34:53.504Z,2.00
2019-05-21T05:37:24.153Z,1.90
2019-05-21T05:39:54.765Z,1.80
2019-05-21T05:42:25.387Z,1.50
2019-05-21T05:44:55.953Z,2.00
2019-05-21T05:47:26.783Z,1.87
2019-05-21T05:49:59.017Z,1.40
2019-05-21T05:52:29.721Z,2.20
2019-05-21T05:55:00.463Z,2.00
2019-05-21T05:57:30.912Z,1.40
2019-05-21T06:00:01.595Z,1.90
2019-05-21T06:02:32.183Z,1.70
2019-05-21T06:05:02.679Z,1.57
2019-05-21T06:07:34.516Z,2.10
2019-05-21T06:10:05.411Z,1.60
2019-05-21T06:12:36.341Z,3.00
2019-05-21T06:15:07.222Z,1.97
2019-05-21T06:17:37.730Z,1.77
2019-05-21T06:20:09.169Z,1.97
2019-05-21T06:22:39.757Z,2.00
2019-05-21T06:25:10.697Z,1.87
2019-05-21T06:27:41.295Z,2.10
2019-05-21T06:30:12.206Z,2.17
2019-05-21T06:32:42.910Z,1.93
2019-05-21T06:35:15.235Z,1.87
2019-05-21T06:37:45.748Z,1.70
2019-05-21T06:40:16.384Z,1.83
2019-05-21T06:42:46.936Z,2.03
2019-05-21T06:45:18.297Z,2.07
2019-05-21T06:47:49.133Z,1.70
2019-05-21T06:50:19.682Z,3.77
2019-05-21T06:52:50.435Z,2.27
2019-05-21T06:55:20.992Z,1.80
2019-05-21T06:57:51.930Z,2.10
2019-05-21T07:00:23.361Z,2.10
2019-05-21T07:02:53.898Z,2.43
2019-05-21T07:05:24.600Z,2.00
2019-05-21T07:07:55.200Z,1.43
2019-05-21T07:10:25.756Z,2.10
2019-05-21T07:12:56.721Z,2.00
2019-05-21T07:15:27.251Z,1.80
2019-05-21T07:17:58.054Z,1.40
2019-05-21T07:20:31.036Z,2.13
2019-05-21T07:23:01.656Z,2.00
2019-05-21T07:25:32.362Z,2.10
2019-05-21T07:28:03.034Z,2.30
2019-05-21T07:30:33.556Z,1.90
2019-05-21T07:33:04.229Z,2.50
2019-05-21T07:35:34.722Z,2.60
2019-05-21T07:38:06.569Z,2.43
2019-05-21T07:40:37.128Z,1.97
2019-05-21T07:43:07.690Z,2.07
2019-05-21T07:45:38.203Z,1.60
2019-05-21T07:48:08.838Z,1.43
2019-05-21T07:50:39.392Z,1.50
2019-05-21T07:53:14.586Z,2.30
2019-05-21T07:55:44.889Z,2.47
2019-05-21T07:58:15.349Z,1.70
2019-05-21T08:00:45.963Z,1.60
2019-05-21T08:03:16.509Z,1.67
2019-05-21T08:05:47.054Z,1.70
2019-05-21T08:08:17.630Z,1.50
2019-05-21T08:10:48.230Z,1.63
2019-05-21T08:13:18.781Z,2.07
2019-05-21T08:15:49.359Z,1.50
2019-05-21T08:18:19.981Z,1.57
2019-05-21T08:20:50.573Z,1.43
2019-05-21T08:23:21.098Z,1.80
2019-05-21T08:25:52.055Z,1.63
2019-05-21T08:28:22.672Z,2.07
2019-05-21T08:30:53.226Z,2.20
2019-05-21T08:33:23.767Z,1.90
2019-05-21T08:35:54.299Z,1.70
2019-05-21T08:38:24.876Z,2.03
2019-05-21T08:40:55.501Z,2.00
2019-05-21T08:43:26.096Z,1.73
2019-05-21T08:45:56.602Z,1.93
2019-05-21T08:48:27.098Z,1.70
2019-05-21T08:50:57.637Z,1.57
2019-05-21T08:53:28.214Z,1.90
2019-05-21T08:55:58.814Z,1.40
2019-05-21T08:58:29.424Z,1.60
2019-05-21T09:01:01.336Z,1.70
2019-05-21T09:03:31.986Z,1.60
2019-05-21T09:06:02.464Z,1.90
2019-05-21T09:08:33.074Z,2.70
2019-05-21T09:11:03.710Z,1.90
2019-05-21T09:13:34.287Z,1.97
2019-05-21T09:16:06.228Z,1.47
2019-05-21T09:18:36.819Z,1.50
2019-05-21T09:21:07.339Z,1.40
2019-05-21T09:23:38.052Z,1.40
2019-05-21T09:26:08.732Z,1.53
2019-05-21T09:28:39.544Z,1.80
2019-05-21T09:31:10.137Z,1.40
2019-05-21T09:33:40.646Z,1.47
2019-05-21T09:36:11.295Z,1.73
2019-05-21T09:38:41.958Z,1.50
2019-05-21T09:41:12.539Z,1.40
2019-05-21T09:44:02.176Z,1.30
2019-05-21T09:46:32.647Z,1.60
2019-05-21T09:49:03.219Z,1.20
2019-05-21T09:51:33.770Z,1.70
2019-05-21T09:54:04.673Z,1.70
2019-05-21T09:56:36.307Z,1.10
2019-05-21T09:59:35.947Z,1.30
2019-05-21T10:02:13.397Z,1.20
2019-05-21T10:04:43.931Z,1.53
2019-05-21T10:07:14.531Z,1.10
2019-05-21T10:09:45.005Z,1.10
2019-05-21T10:12:16.865Z,1.20
2019-05-21T10:14:47.465Z,1.30
2019-05-21T10:17:18.231Z,1.47
2019-05-21T10:19:49.146Z,1.30
2019-05-21T10:22:19.711Z,1.30
2019-05-21T10:24:50.150Z,1.30
2019-05-21T10:27:20.684Z,1.10
2019-05-21T10:29:51.168Z,1.00
2019-05-21T10:32:21.851Z,1.40
2019-05-21T10:34:52.597Z,1.00
2019-05-21T10:37:23.086Z,1.37
2019-05-21T10:39:53.606Z,1.00
2019-05-21T10:42:24.200Z,1.10
2019-05-21T10:44:56.364Z,1.17
2019-05-21T10:47:27.004Z,0.90
2019-05-21T10:49:57.648Z,0.90
2019-05-21T10:52:28.228Z,0.90
2019-05-21T10:54:58.810Z,1.07
2019-05-21T10:57:29.382Z,0.80
2019-05-21T11:00:00.019Z,1.23
2019-05-21T11:02:48.298Z,1.23
2019-05-21T11:05:24.088Z,1.17
2019-05-21T11:07:54.816Z,0.80
2019-05-21T11:10:25.560Z,0.90
2019-05-21T11:12:56.145Z,0.80
2019-05-21T11:15:26.771Z,0.90
2019-05-21T11:18:10.426Z,1.00
2019-05-21T11:20:31.211Z,0.83
2019-05-21T11:23:01.830Z,0.70
2019-05-21T11:25:32.587Z,0.73
2019-05-21T11:28:06.087Z,0.83
2019-05-21T11:30:36.167Z,0.80
2019-05-21T11:33:25.845Z,0.90
2019-05-21T11:36:15.885Z,0.83
2019-05-21T11:38:46.541Z,0.90
2019-05-21T11:41:18.393Z,1.10
2019-05-21T11:43:49.371Z,0.97
2019-05-21T11:46:19.873Z,1.00
2019-05-21T11:48:50.523Z,1.00
2019-05-21T11:51:21.077Z,1.10
2019-05-21T11:53:51.646Z,1.43
2019-05-21T11:56:22.250Z,0.83
2019-05-21T11:58:52.805Z,0.70
2019-05-21T12:01:23.913Z,1.00
2019-05-21T12:03:54.530Z,1.20
2019-05-21T12:06:25.154Z,1.07
2019-05-21T12:08:57.628Z,0.90
2019-05-21T12:11:28.250Z,1.53
2019-05-21T12:13:58.827Z,1.40
2019-05-21T12:16:29.344Z,1.30
2019-05-21T12:19:00.036Z,1.07
2019-05-21T12:21:30.964Z,1.40
2019-05-21T12:24:01.524Z,1.53
2019-05-21T12:26:34.855Z,1.50
2019-05-21T12:29:05.348Z,1.40
2019-05-21T12:31:54.970Z,1.60
2019-05-21T12:34:25.500Z,1.17
2019-05-21T12:36:56.002Z,1.23
2019-05-21T12:39:26.615Z,1.03
2019-05-21T12:41:57.243Z,1.07
2019-05-21T12:44:27.807Z,1.00
2019-05-21T12:46:58.322Z,1.67
2019-05-21T12:49:29.022Z,1.17
2019-05-21T12:51:59.588Z,1.30
2019-05-21T12:54:30.251Z,1.70
2019-05-21T12:57:00.736Z,1.53
2019-05-21T12:59:32.546Z,1.37
2019-05-21T13:02:03.078Z,1.20
2019-05-21T13:04:33.617Z,1.50
2019-05-21T13:07:04.464Z,1.30
2019-05-21T13:09:34.975Z,1.30
2019-05-21T13:12:05.650Z,0.87
2019-05-21T13:14:36.243Z,1.07
2019-05-21T13:17:06.832Z,1.00
2019-05-21T13:19:37.418Z,0.60
2019-05-21T13:22:08.327Z,0.60
2019-05-21T13:24:39.486Z,0.73
2019-05-21T13:27:10.050Z,0.53
2019-05-21T13:29:40.568Z,0.60
2019-05-21T13:32:11.178Z,0.60
2019-05-21T13:34:41.958Z,0.50
2019-05-21T13:37:13.935Z,0.53
2019-05-21T13:39:50.105Z,0.50
2019-05-21T13:42:16.700Z,0.70
2019-05-21T13:44:47.692Z,1.00
2019-05-21T13:47:18.212Z,0.70
2019-05-21T13:49:48.817Z,0.60
2019-05-21T13:52:19.350Z,0.50
2019-05-21T13:54:49.950Z,0.60
2019-05-21T13:57:20.467Z,0.40
2019-05-21T13:59:50.929Z,0.70
2019-05-21T14:02:21.459Z,0.87
2019-05-21T14:04:52.358Z,0.70
2019-05-21T14:07:22.974Z,1.00
2019-05-21T14:10:13.367Z,0.70
2019-05-21T14:12:25.783Z,0.80
2019-05-21T14:14:56.311Z,0.70
2019-05-21T14:17:26.841Z,1.20
2019-05-21T14:19:57.352Z,1.57
2019-05-21T14:22:27.897Z,0.80
2019-05-21T14:24:58.488Z,1.10
2019-05-21T14:27:43.249Z,1.43
2019-05-21T14:30:01.317Z,1.20
2019-05-21T14:32:51.031Z,1.17
2019-05-21T14:35:21.610Z,1.87
2019-05-21T14:37:52.291Z,1.30
2019-05-21T14:40:31.518Z,0.90
2019-05-21T14:42:59.768Z,1.20
2019-05-21T14:45:31.260Z,1.03
2019-05-21T14:48:00.444Z,1.17
2019-05-21T14:50:31.029Z,1.10
2019-05-21T14:53:01.576Z,1.30
2019-05-21T14:55:32.148Z,1.30
2019-05-21T14:58:02.684Z,1.13
2019-05-21T15:00:36.356Z,0.87
2019-05-21T15:03:06.924Z,1.77
2019-05-21T15:05:37.490Z,1.60
2019-05-21T15:08:08.069Z,1.00
2019-05-21T15:10:48.156Z,2.20
2019-05-21T15:13:11.225Z,1.90
2019-05-21T15:15:41.886Z,1.30
2019-05-21T15:18:19.596Z,1.10
2019-05-21T15:21:01.866Z,1.10
2019-05-21T15:23:32.495Z,1.00
2019-05-21T15:26:04.748Z,1.00
2019-05-21T15:28:56.241Z,0.90
2019-05-21T15:31:26.822Z,1.00
2019-05-21T15:33:57.288Z,1.00
2019-05-21T15:36:28.265Z,1.10
2019-05-21T15:38:58.736Z,1.10
2019-05-21T15:41:29.330Z,0.93
2019-05-21T15:43:59.814Z,0.90
2019-05-21T15:46:47.060Z,1.03
2019-05-21T15:49:02.847Z,1.10
2019-05-21T15:51:33.372Z,0.90
2019-05-21T15:54:04.226Z,1.20
2019-05-21T15:56:36.680Z,1.23
2019-05-21T15:59:07.747Z,1.43
2019-05-21T16:01:40.621Z,2.13
2019-05-21T16:04:10.567Z,1.90
2019-05-21T16:06:42.399Z,1.17
2019-05-21T16:09:13.207Z,0.93
2019-05-21T16:11:44.021Z,1.13
2019-05-21T16:14:14.549Z,1.10
2019-05-21T16:16:45.227Z,1.30
2019-05-21T16:19:15.754Z,1.10
2019-05-21T16:21:46.263Z,0.93
2019-05-21T16:24:16.790Z,0.93
2019-05-21T16:26:47.343Z,0.90
2019-05-21T16:29:17.871Z,1.20
2019-05-21T16:31:48.549Z,1.00
2019-05-21T16:34:19.079Z,1.27
2019-05-21T16:36:49.630Z,0.70
2019-05-21T16:39:22.667Z,0.93
2019-05-21T16:41:53.146Z,1.03
2019-05-21T16:44:24.133Z,1.20
2019-05-21T16:46:54.628Z,1.30
2019-05-21T16:49:25.693Z,1.20
2019-05-21T16:51:56.149Z,0.90
2019-05-21T16:54:27.270Z,0.90
2019-05-21T16:56:57.796Z,0.97
2019-05-21T16:59:28.300Z,1.30
2019-05-21T17:01:58.886Z,1.50
2019-05-21T17:04:29.498Z,1.37
2019-05-21T17:07:00.073Z,2.37
2019-05-21T17:09:30.581Z,2.60
2019-05-21T17:12:01.059Z,1.17
2019-05-21T17:14:31.614Z,1.60
2019-05-21T17:17:02.242Z,1.10
2019-05-21T17:19:34.268Z,1.27
2019-05-21T17:22:04.764Z,1.13
2019-05-21T17:24:35.335Z,1.40
2019-05-21T17:27:05.873Z,1.43
2019-05-21T17:29:36.396Z,1.43
2019-05-21T17:32:06.905Z,1.17
2019-05-21T17:34:37.409Z,1.40
2019-05-21T17:37:07.886Z,1.90
2019-05-21T17:39:38.420Z,1.97
2019-05-21T17:42:15.678Z,1.40
2019-05-21T17:44:41.726Z,1.50
2019-05-21T17:47:13.133Z,1.70
2019-05-21T17:49:43.600Z,1.90
2019-05-21T17:52:14.115Z,1.40
2019-05-21T17:54:56.197Z,1.80
2019-05-21T17:57:16.864Z,1.70
2019-05-21T17:59:47.353Z,1.87
2019-05-21T18:02:17.793Z,1.73
2019-05-21T18:04:48.528Z,2.17
2019-05-21T18:07:20.041Z,2.20
2019-05-21T18:09:50.675Z,2.53
2019-05-21T18:12:31.706Z,2.60
2019-05-21T18:14:54.257Z,2.40
2019-05-21T18:17:26.949Z,3.00
2019-05-21T18:19:59.215Z,2.17
2019-05-21T18:22:32.267Z,2.50
2019-05-21T18:25:03.511Z,2.23
2019-05-21T18:27:34.681Z,2.50
2019-05-21T18:30:05.756Z,2.07
2019-05-21T18:32:36.354Z,2.50
2019-05-21T18:35:07.733Z,2.17
2019-05-21T18:37:38.554Z,2.20
2019-05-21T18:40:09.382Z,1.90
2019-05-21T18:42:40.312Z,1.27
2019-05-21T18:45:12.174Z,1.50
2019-05-21T18:47:42.745Z,1.30
2019-05-21T18:50:13.682Z,1.30
2019-05-21T18:52:44.264Z,1.20
2019-05-21T18:55:14.950Z,1.30
2019-05-21T18:57:45.469Z,1.67
2019-05-21T19:00:16.291Z,1.70
2019-05-21T19:02:46.995Z,1.70
2019-05-21T19:05:17.668Z,1.97
2019-05-21T19:07:48.619Z,1.10
2019-05-21T19:10:19.453Z,1.57
2019-05-21T19:12:49.925Z,1.13
2019-05-21T19:15:20.567Z,1.10
2019-05-21T19:18:10.147Z,1.40
2019-05-21T19:20:40.699Z,1.53
2019-05-21T19:23:11.395Z,1.40
2019-05-21T19:25:45.285Z,2.20
2019-05-21T19:28:15.905Z,2.20
2019-05-21T19:30:46.607Z,1.50
2019-05-21T19:33:17.185Z,1.47
2019-05-21T19:35:47.807Z,1.30
2019-05-21T19:38:18.843Z,1.37
2019-05-21T19:40:49.328Z,1.20
2019-05-21T19:43:19.988Z,1.27
2019-05-21T19:45:50.458Z,1.30
2019-05-21T19:48:21.022Z,1.40
2019-05-21T19:50:51.515Z,1.30
2019-05-21T19:53:22.077Z,1.57
2019-05-21T19:55:53.458Z,1.70
2019-05-21T19:58:24.663Z,2.30
2019-05-21T20:00:55.648Z,2.10
2019-05-21T20:03:26.378Z,2.00
2019-05-21T20:05:57.600Z,2.00
2019-05-21T20:08:28.949Z,1.83
2019-05-21T20:10:59.630Z,2.30
2019-05-21T20:13:32.420Z,2.30
2019-05-21T20:16:02.924Z,2.40
2019-05-21T20:18:33.528Z,2.73
2019-05-21T20:21:06.289Z,3.43
2019-05-21T20:23:37.368Z,3.33
2019-05-21T20:26:12.238Z,2.70
2019-05-21T20:28:42.777Z,2.50
2019-05-21T20:31:15.114Z,2.60
2019-05-21T20:33:49.185Z,2.20
2019-05-21T20:36:19.733Z,1.70
2019-05-21T20:38:50.758Z,1.57
2019-05-21T20:41:22.876Z,1.23
2019-05-21T20:43:58.909Z,1.00
2019-05-21T20:46:25.947Z,0.80
2019-05-21T20:48:56.520Z,1.10
2019-05-21T20:51:27.303Z,0.70
2019-05-21T20:53:57.940Z,0.77
2019-05-21T20:56:28.514Z,0.70
2019-05-21T20:58:59.021Z,0.80
2019-05-21T21:01:29.855Z,0.77
2019-05-21T21:04:00.576Z,0.70
2019-05-21T21:06:35.785Z,0.80
2019-05-21T21:09:08.587Z,1.03
2019-05-21T21:11:40.793Z,0.97
2019-05-21T21:14:17.867Z,0.90
2019-05-21T21:16:46.193Z,1.00
2019-05-21T21:19:17.263Z,1.10
2019-05-21T21:21:47.944Z,0.93
2019-05-21T21:24:18.747Z,1.20
2019-05-21T21:26:52.217Z,1.20
2019-05-21T21:29:23.123Z,0.70
2019-05-21T21:31:53.918Z,0.87
2019-05-21T21:34:24.579Z,0.80
2019-05-21T21:36:55.375Z,0.90
2019-05-21T21:39:32.187Z,1.00
2019-05-21T21:42:02.826Z,0.80
2019-05-21T21:44:34.446Z,0.80
2019-05-21T21:47:05.112Z,0.80
2019-05-21T21:49:37.687Z,0.83
2019-05-21T21:52:10.089Z,0.70
2019-05-21T21:54:40.672Z,0.73
2019-05-21T21:57:11.243Z,0.80
2019-05-21T21:59:41.756Z,0.90
2019-05-21T22:02:18.819Z,0.73
2019-05-21T22:04:49.767Z,0.70
2019-05-21T22:07:21.874Z,1.30
2019-05-21T22:09:52.643Z,0.87
2019-05-21T22:12:23.178Z,0.80
2019-05-21T22:15:03.276Z,1.30
2019-05-21T22:17:34.559Z,0.80
2019-05-21T22:20:07.953Z,0.77
2019-05-21T22:22:38.950Z,0.50
2019-05-21T22:25:09.712Z,0.63
2019-05-21T22:27:40.657Z,0.73
2019-05-21T22:30:11.521Z,0.93
2019-05-21T22:32:42.048Z,0.80
2019-05-21T22:35:14.115Z,0.80
2019-05-21T22:37:44.651Z,0.87
2019-05-21T22:40:15.601Z,0.60
2019-05-21T22:42:46.140Z,0.90
2019-05-21T22:45:16.783Z,0.77
2019-05-21T22:47:47.741Z,0.90
2019-05-21T22:50:18.513Z,1.00
2019-05-21T22:52:49.339Z,1.00
2019-05-21T22:55:19.841Z,1.43
2019-05-21T22:57:50.401Z,1.13
2019-05-21T23:00:21.215Z,1.00
2019-05-21T23:02:51.739Z,1.00
2019-05-21T23:05:23.057Z,1.37
2019-05-21T23:07:53.974Z,1.10
2019-05-21T23:10:25.524Z,1.23
2019-05-21T23:12:56.235Z,1.63
2019-05-21T23:15:26.889Z,1.10
2019-05-21T23:17:57.459Z,1.07
2019-05-21T23:20:30.201Z,1.33
2019-05-21T23:23:00.775Z,1.77
2019-05-21T23:25:31.692Z,3.37
2019-05-21T23:28:02.733Z,4.57
2019-05-21T23:30:34.006Z,5.17
2019-05-21T23:33:06.491Z,6.73
2019-05-21T23:35:37.872Z,8.00
2019-05-21T23:38:09.039Z,9.00
2019-05-21T23:40:39.646Z,10.77
2019-05-21T23:43:10.684Z,10.23
2019-05-21T23:45:41.266Z,12.13
2019-05-21T23:48:12.361Z,13.40
2019-05-21T23:50:42.942Z,14.93
2019-05-21T23:53:14.224Z,16.00
2019-05-21T23:55:45.459Z,14.90
2019-05-21T23:58:17.227Z,16.53
